sensor_id;sensor_type;location;lat;lon;timestamp;P1;durP1;ratioP1;P2;durP2;ratioP2
66089;SDS011;53113;45.602;11.904;2022-12-29T00:02:17;44.40;;;32.30;;
66089;SDS011;53113;45.602;11.904;2022-12-29T00:04:43;47.70;;;34.10;;
66089;SDS011;53113;45.602;11.904;2022-12-29T00:07:09;40.20;;;29.20;;
66089;SDS011;53113;45.602;11.904;2022-12-29T00:09:35;45.00;;;33.10;;
66089;SDS011;53113;45.602;11.904;2022-12-29T00:12:03;44.80;;;30.80;;
66089;SDS011;53113;45.602;11.904;2022-12-29T00:14:29;45.00;;;30.30;;
66089;SDS011;53113;45.602;11.904;2022-12-29T00:17:14;43.30;;;31.20;;
66089;SDS011;53113;45.602;11.904;2022-12-29T00:19:39;38.70;;;29.50;;
66089;SDS011;53113;45.602;11.904;2022-12-29T00:22:24;36.00;;;28.00;;
66089;SDS011;53113;45.602;11.904;2022-12-29T00:25:09;37.70;;;28.60;;
66089;SDS011;53113;45.602;11.904;2022-12-29T00:27:56;38.90;;;29.10;;
66089;SDS011;53113;45.602;11.904;2022-12-29T00:30:40;39.70;;;29.10;;
66089;SDS011;53113;45.602;11.904;2022-12-29T00:33:26;39.60;;;29.20;;
66089;SDS011;53113;45.602;11.904;2022-12-29T00:36:24;36.00;;;27.10;;
66089;SDS011;53113;45.602;11.904;2022-12-29T00:39:01;39.90;;;29.00;;
66089;SDS011;53113;45.602;11.904;2022-12-29T00:41:50;35.80;;;26.80;;
66089;SDS011;53113;45.602;11.904;2022-12-29T00:44:34;37.20;;;26.80;;
66089;SDS011;53113;45.602;11.904;2022-12-29T00:47:00;37.20;;;28.30;;
66089;SDS011;53113;45.602;11.904;2022-12-29T00:49:29;35.70;;;26.90;;
66089;SDS011;53113;45.602;11.904;2022-12-29T00:51:57;38.20;;;28.70;;
66089;SDS011;53113;45.602;11.904;2022-12-29T00:54:24;35.00;;;26.60;;
66089;SDS011;53113;45.602;11.904;2022-12-29T00:56:50;38.00;;;28.20;;
66089;SDS011;53113;45.602;11.904;2022-12-29T00:59:17;35.80;;;26.90;;
66089;SDS011;53113;45.602;11.904;2022-12-29T01:01:44;33.30;;;25.30;;
66089;SDS011;53113;45.602;11.904;2022-12-29T01:04:11;35.30;;;26.40;;
66089;SDS011;53113;45.602;11.904;2022-12-29T01:06:38;32.40;;;25.30;;
66089;SDS011;53113;45.602;11.904;2022-12-29T01:09:05;34.70;;;26.10;;
66089;SDS011;53113;45.602;11.904;2022-12-29T01:11:50;35.60;;;25.60;;
66089;SDS011;53113;45.602;11.904;2022-12-29T01:14:17;30.40;;;23.80;;
66089;SDS011;53113;45.602;11.904;2022-12-29T01:16:43;32.00;;;24.00;;
66089;SDS011;53113;45.602;11.904;2022-12-29T01:19:09;30.10;;;22.70;;
66089;SDS011;53113;45.602;11.904;2022-12-29T01:21:35;33.90;;;24.70;;
66089;SDS011;53113;45.602;11.904;2022-12-29T01:24:01;31.70;;;24.00;;
66089;SDS011;53113;45.602;11.904;2022-12-29T01:26:26;31.80;;;23.30;;
66089;SDS011;53113;45.602;11.904;2022-12-29T01:28:52;32.20;;;23.00;;
66089;SDS011;53113;45.602;11.904;2022-12-29T01:31:17;29.80;;;23.20;;
66089;SDS011;53113;45.602;11.904;2022-12-29T01:33:43;34.30;;;24.30;;
66089;SDS011;53113;45.602;11.904;2022-12-29T01:36:10;30.20;;;22.60;;
66089;SDS011;53113;45.602;11.904;2022-12-29T01:38:38;33.20;;;23.20;;
66089;SDS011;53113;45.602;11.904;2022-12-29T01:41:05;32.90;;;24.10;;
66089;SDS011;53113;45.602;11.904;2022-12-29T01:43:38;28.50;;;22.50;;
66089;SDS011;53113;45.602;11.904;2022-12-29T01:46:17;30.20;;;21.60;;
66089;SDS011;53113;45.602;11.904;2022-12-29T01:51:37;29.20;;;22.30;;
66089;SDS011;53113;45.602;11.904;2022-12-29T01:54:07;27.00;;;20.60;;
66089;SDS011;53113;45.602;11.904;2022-12-29T01:56:38;30.30;;;22.20;;
66089;SDS011;53113;45.602;11.904;2022-12-29T01:59:06;29.00;;;21.80;;
66089;SDS011;53113;45.602;11.904;2022-12-29T02:01:38;29.60;;;22.00;;
66089;SDS011;53113;45.602;11.904;2022-12-29T02:04:04;29.90;;;22.60;;
66089;SDS011;53113;45.602;11.904;2022-12-29T02:06:35;31.50;;;23.70;;
66089;SDS011;53113;45.602;11.904;2022-12-29T02:09:07;28.50;;;21.70;;
66089;SDS011;53113;45.602;11.904;2022-12-29T02:11:33;31.10;;;23.10;;
66089;SDS011;53113;45.602;11.904;2022-12-29T02:14:01;33.00;;;25.10;;
66089;SDS011;53113;45.602;11.904;2022-12-29T02:22:00;32.80;;;26.00;;
66089;SDS011;53113;45.602;11.904;2022-12-29T02:24:47;34.20;;;24.20;;
66089;SDS011;53113;45.602;11.904;2022-12-29T02:33:13;31.40;;;25.10;;
66089;SDS011;53113;45.602;11.904;2022-12-29T02:36:04;34.10;;;24.10;;
66089;SDS011;53113;45.602;11.904;2022-12-29T02:41:32;32.40;;;24.60;;
66089;SDS011;53113;45.602;11.904;2022-12-29T02:47:11;30.80;;;22.60;;
66089;SDS011;53113;45.602;11.904;2022-12-29T02:49:48;32.60;;;23.90;;
66089;SDS011;53113;45.602;11.904;2022-12-29T02:52:42;31.00;;;23.40;;
66089;SDS011;53113;45.602;11.904;2022-12-29T02:55:16;29.10;;;23.40;;
66089;SDS011;53113;45.602;11.904;2022-12-29T02:57:42;30.70;;;23.30;;
66089;SDS011;53113;45.602;11.904;2022-12-29T03:00:12;31.20;;;22.80;;
66089;SDS011;53113;45.602;11.904;2022-12-29T03:02:57;29.60;;;22.30;;
66089;SDS011;53113;45.602;11.904;2022-12-29T03:08:48;30.90;;;22.20;;
66089;SDS011;53113;45.602;11.904;2022-12-29T03:11:25;28.30;;;20.60;;
66089;SDS011;53113;45.602;11.904;2022-12-29T03:14:29;31.20;;;21.80;;
66089;SDS011;53113;45.602;11.904;2022-12-29T03:20:17;31.20;;;22.90;;
66089;SDS011;53113;45.602;11.904;2022-12-29T03:22:49;29.30;;;21.90;;
66089;SDS011;53113;45.602;11.904;2022-12-29T03:28:01;27.00;;;19.80;;
66089;SDS011;53113;45.602;11.904;2022-12-29T03:30:31;37.90;;;28.50;;
66089;SDS011;53113;45.602;11.904;2022-12-29T03:33:01;35.30;;;24.90;;
66089;SDS011;53113;45.602;11.904;2022-12-29T03:35:30;33.70;;;25.30;;
66089;SDS011;53113;45.602;11.904;2022-12-29T03:40:31;42.20;;;31.10;;
66089;SDS011;53113;45.602;11.904;2022-12-29T03:42:59;42.40;;;29.70;;
66089;SDS011;53113;45.602;11.904;2022-12-29T03:45:26;38.30;;;27.20;;
66089;SDS011;53113;45.602;11.904;2022-12-29T03:47:52;35.60;;;25.30;;
66089;SDS011;53113;45.602;11.904;2022-12-29T03:50:19;35.40;;;25.10;;
66089;SDS011;53113;45.602;11.904;2022-12-29T03:52:44;31.80;;;23.30;;
66089;SDS011;53113;45.602;11.904;2022-12-29T03:55:10;30.90;;;23.60;;
66089;SDS011;53113;45.602;11.904;2022-12-29T03:57:36;29.10;;;22.50;;
66089;SDS011;53113;45.602;11.904;2022-12-29T04:00:03;28.50;;;21.80;;
66089;SDS011;53113;45.602;11.904;2022-12-29T04:02:30;31.20;;;21.60;;
66089;SDS011;53113;45.602;11.904;2022-12-29T04:04:56;31.10;;;21.80;;
66089;SDS011;53113;45.602;11.904;2022-12-29T04:07:22;26.10;;;19.50;;
66089;SDS011;53113;45.602;11.904;2022-12-29T04:09:47;27.80;;;18.10;;
66089;SDS011;53113;45.602;11.904;2022-12-29T04:12:13;26.00;;;19.00;;
66089;SDS011;53113;45.602;11.904;2022-12-29T04:14:39;27.70;;;20.30;;
66089;SDS011;53113;45.602;11.904;2022-12-29T04:17:06;26.60;;;19.10;;
66089;SDS011;53113;45.602;11.904;2022-12-29T04:19:31;26.10;;;20.10;;
66089;SDS011;53113;45.602;11.904;2022-12-29T04:21:57;25.80;;;19.80;;
66089;SDS011;53113;45.602;11.904;2022-12-29T04:24:23;27.70;;;19.60;;
66089;SDS011;53113;45.602;11.904;2022-12-29T04:26:49;24.90;;;18.90;;
66089;SDS011;53113;45.602;11.904;2022-12-29T04:29:15;26.00;;;19.20;;
66089;SDS011;53113;45.602;11.904;2022-12-29T04:31:41;30.20;;;20.60;;
66089;SDS011;53113;45.602;11.904;2022-12-29T04:34:06;30.10;;;21.10;;
66089;SDS011;53113;45.602;11.904;2022-12-29T04:36:32;31.10;;;20.80;;
66089;SDS011;53113;45.602;11.904;2022-12-29T04:38:58;27.50;;;20.20;;
66089;SDS011;53113;45.602;11.904;2022-12-29T04:41:24;26.50;;;20.30;;
66089;SDS011;53113;45.602;11.904;2022-12-29T04:43:50;26.80;;;18.30;;
66089;SDS011;53113;45.602;11.904;2022-12-29T04:46:16;26.80;;;19.80;;
66089;SDS011;53113;45.602;11.904;2022-12-29T04:48:42;24.40;;;18.80;;
66089;SDS011;53113;45.602;11.904;2022-12-29T04:51:08;27.30;;;20.10;;
66089;SDS011;53113;45.602;11.904;2022-12-29T04:53:33;27.30;;;20.50;;
66089;SDS011;53113;45.602;11.904;2022-12-29T04:55:59;29.20;;;21.60;;
66089;SDS011;53113;45.602;11.904;2022-12-29T04:58:25;32.00;;;23.70;;
66089;SDS011;53113;45.602;11.904;2022-12-29T05:00:51;27.10;;;21.10;;
66089;SDS011;53113;45.602;11.904;2022-12-29T05:03:17;27.30;;;20.40;;
66089;SDS011;53113;45.602;11.904;2022-12-29T05:05:43;28.30;;;20.90;;
66089;SDS011;53113;45.602;11.904;2022-12-29T05:08:09;25.70;;;19.40;;
66089;SDS011;53113;45.602;11.904;2022-12-29T05:10:34;27.30;;;19.50;;
66089;SDS011;53113;45.602;11.904;2022-12-29T05:13:01;28.80;;;19.50;;
66089;SDS011;53113;45.602;11.904;2022-12-29T05:15:26;27.30;;;19.50;;
66089;SDS011;53113;45.602;11.904;2022-12-29T05:17:52;27.20;;;18.60;;
66089;SDS011;53113;45.602;11.904;2022-12-29T05:20:17;24.40;;;18.00;;
66089;SDS011;53113;45.602;11.904;2022-12-29T05:22:44;28.90;;;19.70;;
66089;SDS011;53113;45.602;11.904;2022-12-29T05:25:10;25.30;;;18.30;;
66089;SDS011;53113;45.602;11.904;2022-12-29T05:27:36;26.90;;;18.50;;
66089;SDS011;53113;45.602;11.904;2022-12-29T05:30:02;25.30;;;18.50;;
66089;SDS011;53113;45.602;11.904;2022-12-29T05:32:28;25.20;;;18.10;;
66089;SDS011;53113;45.602;11.904;2022-12-29T05:34:54;25.50;;;18.30;;
66089;SDS011;53113;45.602;11.904;2022-12-29T05:37:20;23.60;;;17.60;;
66089;SDS011;53113;45.602;11.904;2022-12-29T05:39:45;22.60;;;17.50;;
66089;SDS011;53113;45.602;11.904;2022-12-29T05:42:11;23.80;;;18.10;;
66089;SDS011;53113;45.602;11.904;2022-12-29T05:44:36;25.30;;;19.10;;
66089;SDS011;53113;45.602;11.904;2022-12-29T05:47:02;25.10;;;19.20;;
66089;SDS011;53113;45.602;11.904;2022-12-29T05:49:28;25.30;;;18.50;;
